createdAt,value
2022-08-11T00:00:16.228Z,77.41
2022-08-11T00:01:16.227Z,76.70
2022-08-11T00:02:16.206Z,77.82
2022-08-11T00:03:16.207Z,77.61
2022-08-11T00:04:16.175Z,78.63
2022-08-11T00:05:16.157Z,78.83
2022-08-11T00:06:16.197Z,78.63
2022-08-11T00:07:16.136Z,78.02
2022-08-11T00:08:24.437Z,79.03
2022-08-11T00:09:16.110Z,78.73
2022-08-11T00:10:16.091Z,78.33
2022-08-11T00:11:16.100Z,78.12
2022-08-11T00:12:16.068Z,78.42
2022-08-11T00:13:16.974Z,78.73
2022-08-11T00:14:16.031Z,78.56
2022-08-11T00:15:16.031Z,78.06
2022-08-11T00:16:16.031Z,77.75
2022-08-11T00:17:16.078Z,77.95
2022-08-11T00:18:15.988Z,78.06
2022-08-11T00:19:15.990Z,78.56
2022-08-11T00:20:17.314Z,78.66
2022-08-11T00:21:15.972Z,78.66
2022-08-11T00:22:15.930Z,78.56
2022-08-11T00:23:17.383Z,78.60
2022-08-11T00:24:15.912Z,78.80
2022-08-11T00:25:15.909Z,79.51
2022-08-11T00:26:15.901Z,80.02
2022-08-11T00:27:15.879Z,79.51
2022-08-11T00:28:15.863Z,79.72
2022-08-11T00:29:15.851Z,79.92
2022-08-11T00:30:15.840Z,79.61
2022-08-11T00:31:15.841Z,79.72
2022-08-11T00:32:15.810Z,79.51
2022-08-11T00:33:15.800Z,79.61
2022-08-11T00:34:15.780Z,79.82
2022-08-11T00:35:51.864Z,79.75
2022-08-11T00:36:18.907Z,79.96
2022-08-11T00:37:15.750Z,79.75
2022-08-11T00:38:15.731Z,79.85
2022-08-11T00:39:15.785Z,79.96
2022-08-11T00:40:15.692Z,82.29
2022-08-11T00:41:15.693Z,81.58
2022-08-11T00:42:15.690Z,81.78
2022-08-11T00:43:20.032Z,81.88
2022-08-11T00:44:16.660Z,81.27
2022-08-11T00:45:15.639Z,81.92
2022-08-11T00:46:15.627Z,81.82
2022-08-11T00:47:15.629Z,81.82
2022-08-11T00:48:15.599Z,81.52
2022-08-11T00:49:15.589Z,81.41
2022-08-11T00:50:15.568Z,81.21
2022-08-11T00:51:15.557Z,81.41
2022-08-11T00:52:15.559Z,81.31
2022-08-11T00:53:15.537Z,82.43
2022-08-11T00:54:15.518Z,81.92
2022-08-11T00:55:15.502Z,83.04
2022-08-11T00:56:15.519Z,82.94
2022-08-11T00:57:37.219Z,83.14
2022-08-11T00:58:21.774Z,82.33
2022-08-11T00:59:35.523Z,83.34
2022-08-11T01:00:16.438Z,83.14
2022-08-11T01:01:15.487Z,82.73
2022-08-11T01:02:15.429Z,82.53
2022-08-11T01:03:15.397Z,82.43
2022-08-11T01:04:15.390Z,82.37
2022-08-11T01:05:15.376Z,82.47
2022-08-11T01:06:15.378Z,82.98
2022-08-11T01:07:15.378Z,82.26
2022-08-11T01:08:16.355Z,82.17
2022-08-11T01:09:21.963Z,82.57
2022-08-11T01:10:16.307Z,82.57
2022-08-11T01:11:15.298Z,82.57
2022-08-11T01:12:15.297Z,82.47
2022-08-11T01:13:15.275Z,82.87
2022-08-11T01:14:15.256Z,83.59
2022-08-11T01:15:15.245Z,83.59
2022-08-11T01:16:15.227Z,83.99
2022-08-11T01:17:15.229Z,84.20
2022-08-11T01:18:15.196Z,84.34
2022-08-11T01:19:15.187Z,84.95
2022-08-11T01:20:44.918Z,85.76
2022-08-11T01:21:16.166Z,85.55
2022-08-11T01:22:15.156Z,85.25
2022-08-11T01:23:17.498Z,84.64
2022-08-11T01:24:15.126Z,84.84
2022-08-11T01:25:15.106Z,84.23
2022-08-11T01:26:15.100Z,84.03
2022-08-11T01:27:19.364Z,84.03
2022-08-11T01:28:15.067Z,85.66
2022-08-11T01:29:15.065Z,85.46
2022-08-11T01:30:15.036Z,85.05
2022-08-11T01:31:15.038Z,85.05
2022-08-11T01:32:15.026Z,84.54
2022-08-11T01:33:14.998Z,84.84
2022-08-11T01:34:14.995Z,84.74
2022-08-11T01:35:14.974Z,84.54
2022-08-11T01:36:14.955Z,84.74
2022-08-11T01:37:14.969Z,84.48
2022-08-11T01:38:14.946Z,85.60
2022-08-11T01:39:18.423Z,85.90
2022-08-11T01:40:14.903Z,87.02
2022-08-11T01:41:14.898Z,86.51
2022-08-11T01:42:14.897Z,86.71
2022-08-11T01:43:14.865Z,86.92
2022-08-11T01:44:14.842Z,86.41
2022-08-11T01:45:14.855Z,85.90
2022-08-11T01:46:14.819Z,86.51
2022-08-11T01:47:14.835Z,86.41
2022-08-11T01:48:14.817Z,86.61
2022-08-11T01:50:06.591Z,87.02
2022-08-11T01:50:15.765Z,87.23
2022-08-11T01:51:16.883Z,86.51
2022-08-11T01:52:14.746Z,86.10
2022-08-11T01:53:14.725Z,86.61
2022-08-11T01:54:14.715Z,86.41
2022-08-11T01:55:14.713Z,86.00
2022-08-11T01:56:14.685Z,86.10
2022-08-11T01:57:14.686Z,86.00
2022-08-11T01:58:14.663Z,86.41
2022-08-11T01:59:14.712Z,87.12
2022-08-11T02:00:14.635Z,86.61
2022-08-11T02:01:14.686Z,86.61
2022-08-11T02:02:18.907Z,87.23
2022-08-11T02:03:15.603Z,86.41
2022-08-11T02:04:14.575Z,86.10
2022-08-11T02:05:14.585Z,86.10
2022-08-11T02:06:14.553Z,86.41
2022-08-11T02:07:14.562Z,86.55
2022-08-11T02:08:14.523Z,86.15
2022-08-11T02:09:14.514Z,86.35
2022-08-11T02:10:14.502Z,87.37
2022-08-11T02:11:14.492Z,87.16
2022-08-11T02:12:14.494Z,86.76
2022-08-11T02:13:14.455Z,86.45
2022-08-11T02:14:14.450Z,86.86
2022-08-11T02:15:14.434Z,86.76
2022-08-11T02:16:14.414Z,86.55
2022-08-11T02:17:14.423Z,86.76
2022-08-11T02:18:14.393Z,86.96
2022-08-11T02:19:14.393Z,87.26
2022-08-11T02:20:14.363Z,86.96
2022-08-11T02:21:14.364Z,87.16
2022-08-11T02:22:14.373Z,86.86
2022-08-11T02:23:14.332Z,87.98
2022-08-11T02:24:15.323Z,88.32
2022-08-11T02:25:17.706Z,88.22
2022-08-11T02:26:14.283Z,88.22
2022-08-11T02:27:14.299Z,89.20
2022-08-11T02:28:14.254Z,88.89
2022-08-11T02:29:14.254Z,88.39
2022-08-11T02:30:14.223Z,88.28
2022-08-11T02:31:22.535Z,87.87
2022-08-11T02:32:28.593Z,87.87
2022-08-11T02:33:15.312Z,88.08
2022-08-11T02:34:14.173Z,87.47
2022-08-11T02:35:14.161Z,87.47
2022-08-11T02:36:14.143Z,87.87
2022-08-11T02:37:14.163Z,88.69
2022-08-11T02:38:14.111Z,89.00
2022-08-11T02:39:14.166Z,88.69
2022-08-11T02:40:14.094Z,88.39
2022-08-11T02:41:14.101Z,88.32
2022-08-11T02:42:35.232Z,89.24
2022-08-11T02:43:15.066Z,89.44
2022-08-11T02:44:14.040Z,89.24
2022-08-11T02:45:14.023Z,89.14
2022-08-11T02:46:18.434Z,89.34
2022-08-11T02:47:14.011Z,88.73
2022-08-11T02:48:14.080Z,88.53
2022-08-11T02:49:14.006Z,88.73
2022-08-11T02:50:13.960Z,89.64
2022-08-11T02:51:13.951Z,89.85
2022-08-11T02:52:14.961Z,89.03
2022-08-11T02:53:13.923Z,88.93
2022-08-11T02:54:13.900Z,88.93
2022-08-11T02:55:44.684Z,89.03
2022-08-11T02:56:14.880Z,88.93
2022-08-11T02:57:13.888Z,90.05
2022-08-11T02:58:13.850Z,90.31
2022-08-11T02:59:13.850Z,90.22
2022-08-11T03:00:13.811Z,89.91
2022-08-11T03:01:13.844Z,89.00
2022-08-11T03:02:13.854Z,88.69
2022-08-11T03:03:13.781Z,88.59
2022-08-11T03:04:13.770Z,88.18
2022-08-11T03:05:13.772Z,88.69
2022-08-11T03:06:13.741Z,88.63
2022-08-11T03:07:28.883Z,89.54
2022-08-11T03:08:14.738Z,89.85
2022-08-11T03:09:13.710Z,89.54
2022-08-11T03:10:13.689Z,89.14
2022-08-11T03:11:13.679Z,89.34
2022-08-11T03:12:13.682Z,89.64
2022-08-11T03:13:14.218Z,89.75
2022-08-11T03:14:13.630Z,90.25
2022-08-11T03:15:13.619Z,90.36
2022-08-11T03:16:13.610Z,90.25
2022-08-11T03:17:13.610Z,89.95
2022-08-11T03:18:13.584Z,90.05
2022-08-11T03:19:13.569Z,90.16
2022-08-11T03:20:13.560Z,90.05
2022-08-11T03:21:13.540Z,90.05
2022-08-11T03:22:14.524Z,90.46
2022-08-11T03:23:20.391Z,90.05
2022-08-11T03:24:14.499Z,89.95
2022-08-11T03:25:13.509Z,89.69
2022-08-11T03:26:13.469Z,89.59
2022-08-11T03:27:13.468Z,89.28
2022-08-11T03:28:13.442Z,89.48
2022-08-11T03:29:18.305Z,89.79
2022-08-11T03:30:14.419Z,90.40
2022-08-11T03:31:13.400Z,90.30
2022-08-11T03:32:13.400Z,89.99
2022-08-11T03:33:13.393Z,89.99
2022-08-11T03:34:13.359Z,89.69
2022-08-11T03:35:17.790Z,89.59
2022-08-11T03:36:14.328Z,89.69
2022-08-11T03:37:16.680Z,89.59
2022-08-11T03:38:13.316Z,89.59
2022-08-11T03:39:13.377Z,89.69
2022-08-11T03:40:13.311Z,89.63
2022-08-11T03:41:49.325Z,90.03
2022-08-11T03:42:14.267Z,90.24
2022-08-11T03:43:13.249Z,90.34
2022-08-11T03:44:13.218Z,90.55
2022-08-11T03:45:13.231Z,90.64
2022-08-11T03:46:13.198Z,90.75
2022-08-11T03:47:13.197Z,90.75
2022-08-11T03:48:13.198Z,90.55
2022-08-11T03:49:13.158Z,90.55
2022-08-11T03:50:13.180Z,90.75
2022-08-11T03:51:13.140Z,91.56
2022-08-11T03:52:13.130Z,91.26
2022-08-11T03:53:13.117Z,91.50
2022-08-11T03:54:13.109Z,91.40
2022-08-11T03:55:13.090Z,91.20
2022-08-11T03:56:13.076Z,91.09
2022-08-11T03:57:13.056Z,91.09
2022-08-11T03:58:13.057Z,90.99
2022-08-11T03:59:13.026Z,91.09
2022-08-11T04:00:13.026Z,91.09
2022-08-11T04:01:13.037Z,91.91
2022-08-11T04:02:12.995Z,92.32
2022-08-11T04:03:12.996Z,92.01
2022-08-11T04:04:12.967Z,91.61
2022-08-11T04:05:12.957Z,91.81
2022-08-11T04:06:12.945Z,92.22
2022-08-11T04:07:17.792Z,92.22
2022-08-11T04:08:13.936Z,91.81
2022-08-11T04:09:13.273Z,91.50
2022-08-11T04:10:12.877Z,91.81
2022-08-11T04:11:12.888Z,92.01
2022-08-11T04:12:14.761Z,92.11
2022-08-11T04:13:13.846Z,92.52
2022-08-11T04:14:12.838Z,92.52
2022-08-11T04:15:12.825Z,92.83
2022-08-11T04:16:13.013Z,93.13
2022-08-11T04:17:12.824Z,93.13
2022-08-11T04:18:12.815Z,93.24
2022-08-11T04:19:12.765Z,93.85
2022-08-11T04:20:12.756Z,94.76
2022-08-11T04:21:12.738Z,95.48
2022-08-11T04:22:12.726Z,95.03
2022-08-11T04:23:12.715Z,94.21
2022-08-11T04:24:37.709Z,93.90
2022-08-11T04:25:13.679Z,94.31
2022-08-11T04:26:15.958Z,94.52
2022-08-11T04:27:14.366Z,94.62
2022-08-11T04:28:28.699Z,94.31
2022-08-11T04:29:13.622Z,94.17
2022-08-11T04:30:12.614Z,93.96
2022-08-11T04:31:12.611Z,94.17
2022-08-11T04:32:12.595Z,94.88
2022-08-11T04:33:12.583Z,94.37
2022-08-11T04:34:12.587Z,93.92
2022-08-11T04:35:12.573Z,93.51
2022-08-11T04:36:12.592Z,93.51
2022-08-11T04:37:12.514Z,93.26
2022-08-11T04:38:12.541Z,93.06
2022-08-11T04:39:12.577Z,92.65
2022-08-11T04:40:12.493Z,92.25
2022-08-11T04:41:12.471Z,92.25
2022-08-11T04:42:12.464Z,92.55
2022-08-11T04:43:12.483Z,92.61
2022-08-11T04:44:12.444Z,92.00
2022-08-11T04:45:12.412Z,92.21
2022-08-11T04:46:12.954Z,92.41
2022-08-11T04:47:12.391Z,92.10
2022-08-11T04:48:12.385Z,91.69
2022-08-11T04:49:12.379Z,91.19
2022-08-11T04:50:13.354Z,91.39
2022-08-11T04:51:17.496Z,91.69
2022-08-11T04:52:13.332Z,91.49
2022-08-11T04:53:12.314Z,90.99
2022-08-11T04:54:12.333Z,91.60
2022-08-11T04:55:12.361Z,91.55
2022-08-11T04:56:12.503Z,91.35
2022-08-11T04:57:12.243Z,91.55
2022-08-11T04:58:12.253Z,91.25
2022-08-11T04:59:12.260Z,91.25
2022-08-11T05:00:12.226Z,91.20
2022-08-11T05:01:12.243Z,91.00
2022-08-11T05:02:17.136Z,90.70
2022-08-11T05:03:13.182Z,90.59
2022-08-11T05:04:12.194Z,90.80
2022-08-11T05:05:12.153Z,90.55
2022-08-11T05:06:12.142Z,90.05
2022-08-11T05:07:12.123Z,89.39
2022-08-11T05:08:12.112Z,89.29
2022-08-11T05:09:12.122Z,89.09
2022-08-11T05:10:12.082Z,88.75
2022-08-11T05:11:12.082Z,88.44
2022-08-11T05:12:12.062Z,88.23
2022-08-11T05:13:12.070Z,87.93
2022-08-11T05:14:12.059Z,88.20
2022-08-11T05:15:12.021Z,87.59
2022-08-11T05:16:12.020Z,87.48
2022-08-11T05:17:11.991Z,87.24
2022-08-11T05:18:11.981Z,86.63
2022-08-11T05:19:12.002Z,86.73
2022-08-11T05:20:11.990Z,86.53
2022-08-11T05:21:11.969Z,86.29
2022-08-11T05:22:11.924Z,85.99
2022-08-11T05:23:11.911Z,85.99
2022-08-11T05:24:11.925Z,85.33
2022-08-11T05:25:11.889Z,85.64
2022-08-11T05:26:47.117Z,85.24
2022-08-11T05:27:13.990Z,84.69
2022-08-11T05:28:11.867Z,84.39
2022-08-11T05:29:19.728Z,84.25
2022-08-11T05:30:12.823Z,84.14
2022-08-11T05:31:11.813Z,83.54
2022-08-11T05:32:11.793Z,83.70
2022-08-11T05:33:11.789Z,83.50
2022-08-11T05:34:11.790Z,83.40
2022-08-11T05:36:00.611Z,82.75
2022-08-11T05:36:12.744Z,82.45
2022-08-11T05:37:26.060Z,81.84
2022-08-11T05:38:12.722Z,81.70
2022-08-11T05:39:11.743Z,81.20
2022-08-11T05:40:11.816Z,81.46
2022-08-11T05:41:11.675Z,80.55
2022-08-11T05:42:11.670Z,80.41
2022-08-11T05:43:12.649Z,80.62
2022-08-11T05:44:20.653Z,80.01
2022-08-11T05:45:15.536Z,79.57
2022-08-11T05:46:13.261Z,80.07
2022-08-11T05:47:11.630Z,79.47
2022-08-11T05:48:11.609Z,78.83
2022-08-11T05:49:11.572Z,78.63
2022-08-11T05:50:13.405Z,77.82
2022-08-11T05:51:11.543Z,78.08
2022-08-11T05:52:12.996Z,77.88
2022-08-11T05:53:12.520Z,78.28
2022-08-11T05:54:28.221Z,77.75
2022-08-11T05:55:12.512Z,77.55
2022-08-11T05:56:11.499Z,77.55
2022-08-11T05:57:48.735Z,77.81
2022-08-11T05:58:12.460Z,77.11
2022-08-11T05:59:11.454Z,76.36
2022-08-11T06:00:11.445Z,76.46
2022-08-11T06:01:11.510Z,76.23
2022-08-11T06:02:11.394Z,75.92
2022-08-11T06:03:11.385Z,75.32
2022-08-11T06:04:11.373Z,75.38
2022-08-11T06:05:11.382Z,75.59
2022-08-11T06:06:11.350Z,75.29
2022-08-11T06:07:11.330Z,74.95
2022-08-11T06:08:11.322Z,75.29
2022-08-11T06:09:11.310Z,74.65
2022-08-11T06:10:11.302Z,75.25
2022-08-11T06:11:11.261Z,73.74
2022-08-11T06:12:11.261Z,74.15
2022-08-11T06:13:11.310Z,73.71
2022-08-11T06:14:11.243Z,74.21
2022-08-11T06:15:11.233Z,74.11
2022-08-11T06:16:11.202Z,73.41
2022-08-11T06:17:11.199Z,73.81
2022-08-11T06:18:11.182Z,74.57
2022-08-11T06:19:11.870Z,73.87
2022-08-11T06:20:11.161Z,73.84
2022-08-11T06:21:11.132Z,73.40
2022-08-11T06:22:11.144Z,71.20
2022-08-11T06:23:11.108Z,71.20
2022-08-11T06:24:11.130Z,71.80
2022-08-11T06:25:11.081Z,71.56
2022-08-11T06:26:11.071Z,71.66
2022-08-11T06:27:13.549Z,71.77
2022-08-11T06:28:11.061Z,71.43
2022-08-11T06:29:11.040Z,71.43
2022-08-11T06:30:11.040Z,70.83
2022-08-11T06:31:11.002Z,69.89
2022-08-11T06:32:10.991Z,70.39
2022-08-11T06:33:10.972Z,70.36
2022-08-11T06:34:10.974Z,69.76
2022-08-11T06:35:10.962Z,69.96
2022-08-11T06:36:10.944Z,69.26
2022-08-11T06:37:10.960Z,69.36
2022-08-11T06:38:10.912Z,68.26
2022-08-11T06:39:10.994Z,69.02
2022-08-11T06:40:10.901Z,68.62
2022-08-11T06:41:10.871Z,67.43
2022-08-11T06:42:10.861Z,68.32
2022-08-11T06:43:10.843Z,68.02
2022-08-11T06:44:10.835Z,68.82
2022-08-11T06:45:10.831Z,68.52
2022-08-11T06:46:10.803Z,68.73
2022-08-11T06:47:10.813Z,69.69
2022-08-11T06:48:10.780Z,67.69
2022-08-11T06:49:10.763Z,67.59
2022-08-11T06:50:10.763Z,67.76
2022-08-11T06:51:10.733Z,67.56
2022-08-11T06:52:32.036Z,67.76
2022-08-11T06:53:11.713Z,68.36
2022-08-11T06:54:10.702Z,66.16
2022-08-11T06:55:58.014Z,67.36
2022-08-11T06:56:11.728Z,66.63
2022-08-11T06:57:29.285Z,66.03
2022-08-11T06:58:11.652Z,66.53
2022-08-11T06:59:10.633Z,66.30
2022-08-11T07:00:10.641Z,66.09
2022-08-11T07:01:10.649Z,66.00
2022-08-11T07:02:10.596Z,65.80
2022-08-11T07:03:10.584Z,66.27
2022-08-11T07:04:10.567Z,65.26
2022-08-11T07:05:10.564Z,65.17
2022-08-11T07:06:10.550Z,65.44
2022-08-11T07:07:10.528Z,66.03
2022-08-11T07:08:34.641Z,64.54
2022-08-11T07:09:11.504Z,64.94
2022-08-11T07:10:10.495Z,64.71
2022-08-11T07:11:10.464Z,63.91
2022-08-11T07:12:10.466Z,63.08
2022-08-11T07:13:10.476Z,63.08
2022-08-11T07:14:11.435Z,63.68
2022-08-11T07:15:10.427Z,64.67
2022-08-11T07:16:13.518Z,63.45
2022-08-11T07:17:10.396Z,63.55
2022-08-11T07:18:10.383Z,63.05
2022-08-11T07:19:10.364Z,62.26
2022-08-11T07:20:11.379Z,61.96
2022-08-11T07:22:00.485Z,63.18
2022-08-11T07:22:11.334Z,62.78
2022-08-11T07:23:10.308Z,62.29
2022-08-11T07:24:10.297Z,62.78
2022-08-11T07:25:10.295Z,63.28
2022-08-11T07:26:10.277Z,62.55
2022-08-11T07:27:10.259Z,63.15
2022-08-11T07:28:10.249Z,62.52
2022-08-11T07:29:10.228Z,61.83
2022-08-11T07:30:10.249Z,62.82
2022-08-11T07:31:10.216Z,61.60
2022-08-11T07:32:10.205Z,60.70
2022-08-11T07:33:10.175Z,61.20
2022-08-11T07:34:15.892Z,60.68
2022-08-11T07:35:11.166Z,59.68
2022-08-11T07:36:10.143Z,59.78
2022-08-11T07:37:10.126Z,59.98
2022-08-11T07:38:10.122Z,61.07
2022-08-11T07:39:10.130Z,61.17
2022-08-11T07:40:10.106Z,59.85
2022-08-11T07:41:10.079Z,58.75
2022-08-11T07:42:10.067Z,58.95
2022-08-11T07:43:10.048Z,59.12
2022-08-11T07:44:10.043Z,59.42
2022-08-11T07:45:10.033Z,58.30
2022-08-11T07:46:10.016Z,58.67
2022-08-11T07:47:09.988Z,57.87
2022-08-11T07:48:09.985Z,58.25
2022-08-11T07:49:09.967Z,57.55
2022-08-11T07:50:09.974Z,57.13
2022-08-11T07:51:09.939Z,56.43
2022-08-11T07:52:09.937Z,55.51
2022-08-11T07:53:09.922Z,56.11
2022-08-11T07:54:16.511Z,55.71
2022-08-11T07:55:10.933Z,54.82
2022-08-11T07:56:09.879Z,55.21
2022-08-11T07:57:38.982Z,54.75
2022-08-11T07:58:19.166Z,56.23
2022-08-11T07:59:10.838Z,55.96
2022-08-11T08:00:10.323Z,55.96
2022-08-11T08:01:10.669Z,57.13
2022-08-11T08:02:10.858Z,57.23
2022-08-11T08:03:09.790Z,56.30
2022-08-11T08:04:09.792Z,54.92
2022-08-11T08:05:09.779Z,55.02
2022-08-11T08:06:28.475Z,55.11
2022-08-11T08:07:10.742Z,55.88
2022-08-11T08:08:09.724Z,55.98
2022-08-11T08:09:09.720Z,55.26
2022-08-11T08:10:09.724Z,54.17
2022-08-11T08:11:09.689Z,54.94
2022-08-11T08:12:09.670Z,52.96
2022-08-11T08:13:09.662Z,53.25
2022-08-11T08:14:09.644Z,54.14
2022-08-11T08:15:09.653Z,52.66
2022-08-11T08:16:09.621Z,52.09
2022-08-11T08:17:09.610Z,52.88
2022-08-11T08:18:26.052Z,53.28
2022-08-11T08:19:10.581Z,53.08
2022-08-11T08:20:09.632Z,52.86
2022-08-11T08:21:09.562Z,52.73
2022-08-11T08:22:34.678Z,52.04
2022-08-11T08:23:10.542Z,52.24
2022-08-11T08:24:09.562Z,49.37
2022-08-11T08:25:09.559Z,51.23
2022-08-11T08:26:13.572Z,51.52
2022-08-11T08:27:10.481Z,50.93
2022-08-11T08:28:09.452Z,51.52
2022-08-11T08:29:09.447Z,49.74
2022-08-11T08:30:09.459Z,49.52
2022-08-11T08:31:09.423Z,49.99
2022-08-11T08:32:09.416Z,49.10
2022-08-11T08:33:09.417Z,48.71
2022-08-11T08:34:09.376Z,48.90
2022-08-11T08:35:09.396Z,49.60
2022-08-11T08:36:09.448Z,48.98
2022-08-11T08:37:15.902Z,49.87
2022-08-11T08:38:10.325Z,49.65
2022-08-11T08:39:09.364Z,47.97
2022-08-11T08:40:09.319Z,47.97
2022-08-11T08:41:09.295Z,49.84
2022-08-11T08:42:09.273Z,49.35
2022-08-11T08:43:09.265Z,49.65
2022-08-11T08:44:36.672Z,48.75
2022-08-11T08:45:10.305Z,48.63
2022-08-11T08:46:09.214Z,46.47
2022-08-11T08:47:09.213Z,46.17
2022-08-11T08:48:09.195Z,47.38
2022-08-11T08:49:09.185Z,47.67
2022-08-11T08:50:09.227Z,48.27
2022-08-11T08:51:11.028Z,46.96
2022-08-11T08:52:23.717Z,48.24
2022-08-11T08:53:10.136Z,45.26
2022-08-11T08:54:09.120Z,46.81
2022-08-11T08:55:09.126Z,46.00
2022-08-11T08:56:09.095Z,45.88
2022-08-11T08:57:09.084Z,44.11
2022-08-11T08:58:09.075Z,44.70
2022-08-11T08:59:09.060Z,43.52
2022-08-11T09:00:13.061Z,44.01
2022-08-11T09:01:10.083Z,45.17
2022-08-11T09:02:09.034Z,45.07
2022-08-11T09:03:38.145Z,44.38
2022-08-11T09:04:12.296Z,43.50
2022-08-11T09:05:08.996Z,42.49
2022-08-11T09:06:08.975Z,43.48
2022-08-11T09:07:08.961Z,41.88
2022-08-11T09:08:08.960Z,44.15
2022-08-11T09:09:08.997Z,42.65
2022-08-11T09:10:08.931Z,42.45
2022-08-11T09:11:13.462Z,42.35
2022-08-11T09:12:09.893Z,40.29
2022-08-11T09:13:08.913Z,41.96
2022-08-11T09:14:14.380Z,40.48
2022-08-11T09:15:09.875Z,41.27
2022-08-11T09:16:08.868Z,40.41
2022-08-11T09:17:08.833Z,40.41
2022-08-11T09:18:08.817Z,41.61
2022-08-11T09:19:08.810Z,41.09
2022-08-11T09:20:08.810Z,42.96
2022-08-11T09:21:08.780Z,41.08
2022-08-11T09:22:08.760Z,40.29
2022-08-11T09:24:14.959Z,39.58
2022-08-11T09:25:09.745Z,39.98
2022-08-11T09:26:08.718Z,41.84
2022-08-11T09:27:08.737Z,41.45
2022-08-11T09:28:08.685Z,39.39
2022-08-11T09:29:08.678Z,40.96
2022-08-11T09:30:08.676Z,39.39
2022-08-11T09:31:08.650Z,38.90
2022-08-11T09:32:08.633Z,39.21
2022-08-11T09:33:08.624Z,38.64
2022-08-11T09:34:08.609Z,39.42
2022-08-11T09:35:08.628Z,40.51
2022-08-11T09:36:08.582Z,38.13
2022-08-11T09:37:08.573Z,37.93
2022-08-11T09:38:08.564Z,37.34
2022-08-11T09:39:08.642Z,39.00
2022-08-11T09:40:08.551Z,38.80
2022-08-11T09:41:08.523Z,38.29
2022-08-11T09:42:11.349Z,38.78
2022-08-11T09:43:09.505Z,37.78
2022-08-11T09:44:08.484Z,37.38
2022-08-11T09:45:08.487Z,36.98
2022-08-11T09:46:08.454Z,37.46
2022-08-11T09:47:08.443Z,36.30
2022-08-11T09:48:08.426Z,35.64
2022-08-11T09:49:08.424Z,36.16
2022-08-11T09:50:08.428Z,37.63
2022-08-11T09:51:08.405Z,37.63
2022-08-11T09:52:08.385Z,37.82
2022-08-11T09:53:36.414Z,37.72
2022-08-11T09:54:09.355Z,37.80
2022-08-11T09:55:08.346Z,35.83
2022-08-11T09:56:08.336Z,35.93
2022-08-11T09:57:08.326Z,37.80
2022-08-11T09:58:08.297Z,37.19
2022-08-11T09:59:08.299Z,36.51
2022-08-11T10:00:12.195Z,37.88
2022-08-11T10:01:08.361Z,36.11
2022-08-11T10:02:08.267Z,35.62
2022-08-11T10:03:08.238Z,36.80
2022-08-11T10:04:08.226Z,37.27
2022-08-11T10:05:08.227Z,36.09
2022-08-11T10:06:08.407Z,35.58
2022-08-11T10:07:08.189Z,35.39
2022-08-11T10:08:08.176Z,36.08
2022-08-11T10:09:08.167Z,35.19
2022-08-11T10:10:08.168Z,36.47
2022-08-11T10:11:08.142Z,37.25
2022-08-11T10:12:08.128Z,35.00
2022-08-11T10:14:30.519Z,34.11
2022-08-11T10:14:33.748Z,36.37
2022-08-11T10:15:09.148Z,35.58
2022-08-11T10:16:15.574Z,35.17
2022-08-11T10:17:09.063Z,34.20
2022-08-11T10:18:08.048Z,34.88
2022-08-11T10:19:08.035Z,34.59
2022-08-11T10:20:08.030Z,34.49
2022-08-11T10:21:08.022Z,34.00
2022-08-11T10:22:07.993Z,35.45
2022-08-11T10:23:08.006Z,33.50
2022-08-11T10:24:07.974Z,34.65
2022-08-11T10:25:07.979Z,34.84
2022-08-11T10:26:07.970Z,33.18
2022-08-11T10:27:07.933Z,34.06
2022-08-11T10:28:28.631Z,33.97
2022-08-11T10:29:13.450Z,33.77
2022-08-11T10:30:08.905Z,33.95
2022-08-11T10:31:12.567Z,32.99
2022-08-11T10:32:08.870Z,34.36
2022-08-11T10:33:07.860Z,34.94
2022-08-11T10:34:07.845Z,35.93
2022-08-11T10:35:07.831Z,33.77
2022-08-11T10:36:16.725Z,34.84
2022-08-11T10:37:08.820Z,33.48
2022-08-11T10:38:09.993Z,34.24
2022-08-11T10:39:07.814Z,33.17
2022-08-11T10:40:07.763Z,33.75
2022-08-11T10:41:07.775Z,33.67
2022-08-11T10:42:12.286Z,35.44
2022-08-11T10:43:08.724Z,34.75
2022-08-11T10:44:07.719Z,35.53
2022-08-11T10:45:07.714Z,34.74
2022-08-11T10:46:07.711Z,33.26
2022-08-11T10:47:07.681Z,33.64
2022-08-11T10:48:10.935Z,32.95
2022-08-11T10:49:08.654Z,32.76
2022-08-11T10:50:07.645Z,32.17
2022-08-11T10:51:07.645Z,32.95
2022-08-11T10:52:07.631Z,32.27
2022-08-11T10:53:07.878Z,32.29
2022-08-11T10:54:07.584Z,34.03
2022-08-11T10:55:08.607Z,32.95
2022-08-11T10:56:07.559Z,31.90
2022-08-11T10:57:07.547Z,32.39
2022-08-11T10:58:07.545Z,31.90
2022-08-11T10:59:07.536Z,32.10
2022-08-11T11:00:07.519Z,32.50
2022-08-11T11:01:07.550Z,33.59
2022-08-11T11:02:07.480Z,33.10
2022-08-11T11:03:23.091Z,32.61
2022-08-11T11:04:08.458Z,34.28
2022-08-11T11:05:07.462Z,32.79
2022-08-11T11:06:28.811Z,34.93
2022-08-11T11:07:08.427Z,31.51
2022-08-11T11:08:07.407Z,33.45
2022-08-11T11:09:07.396Z,32.56
2022-08-11T11:10:07.394Z,31.60
2022-08-11T11:11:07.370Z,31.90
2022-08-11T11:12:07.364Z,31.39
2022-08-11T11:13:07.341Z,32.17
2022-08-11T11:14:07.329Z,32.86
2022-08-11T11:15:08.356Z,32.46
2022-08-11T11:16:08.322Z,32.42
2022-08-11T11:17:07.299Z,33.51
2022-08-11T11:18:07.281Z,33.00
2022-08-11T11:19:07.281Z,32.71
2022-08-11T11:20:07.292Z,32.30
2022-08-11T11:21:07.258Z,33.65
2022-08-11T11:22:07.221Z,31.99
2022-08-11T11:23:07.234Z,31.80
2022-08-11T11:24:07.211Z,31.70
2022-08-11T11:25:07.201Z,33.05
2022-08-11T11:26:07.177Z,31.29
2022-08-11T11:27:07.177Z,31.88
2022-08-11T11:28:07.152Z,31.99
2022-08-11T11:29:07.199Z,32.19
2022-08-11T11:30:07.123Z,31.13
2022-08-11T11:31:07.123Z,33.75
2022-08-11T11:32:07.100Z,32.39
2022-08-11T11:33:07.093Z,33.15
2022-08-11T11:34:12.695Z,31.20
2022-08-11T11:35:08.063Z,30.71
2022-08-11T11:36:07.065Z,30.80
2022-08-11T11:37:07.044Z,31.98
2022-08-11T11:38:10.486Z,31.88
2022-08-11T11:39:08.047Z,30.41
2022-08-11T11:40:07.000Z,31.49
2022-08-11T11:41:07.010Z,32.09
2022-08-11T11:42:06.972Z,32.40
2022-08-11T11:43:06.956Z,32.19
2022-08-11T11:44:06.944Z,30.74
2022-08-11T11:45:06.971Z,31.19
2022-08-11T11:46:06.943Z,32.97
2022-08-11T11:47:06.919Z,32.37
2022-08-11T11:48:06.911Z,33.15
2022-08-11T11:49:06.943Z,34.01
2022-08-11T11:50:07.877Z,31.83
2022-08-11T11:51:15.558Z,31.91
2022-08-11T11:52:14.355Z,31.41
2022-08-11T11:53:14.333Z,32.46
2022-08-11T11:54:14.319Z,32.35
2022-08-11T11:55:15.539Z,32.92
2022-08-11T11:56:06.798Z,29.59
2022-08-11T11:57:06.787Z,29.90
2022-08-11T11:58:06.768Z,29.61
2022-08-11T11:59:06.756Z,30.10
2022-08-11T12:00:06.740Z,29.63
2022-08-11T12:01:06.749Z,30.80
2022-08-11T12:02:11.665Z,31.48
2022-08-11T12:03:07.748Z,31.75
2022-08-11T12:04:06.691Z,28.43
2022-08-11T12:05:06.755Z,28.63
2022-08-11T12:06:06.697Z,31.48
2022-08-11T12:07:06.658Z,30.20
2022-08-11T12:08:13.052Z,29.81
2022-08-11T12:09:07.638Z,31.08
2022-08-11T12:10:06.617Z,32.16
2022-08-11T12:11:06.634Z,29.71
2022-08-11T12:12:06.591Z,30.20
2022-08-11T12:13:06.569Z,30.59
2022-08-11T12:14:10.450Z,30.30
2022-08-11T12:15:06.551Z,30.49
2022-08-11T12:16:33.538Z,31.08
2022-08-11T12:17:07.522Z,31.48
2022-08-11T12:18:06.523Z,29.61
2022-08-11T12:19:06.509Z,30.12
2022-08-11T12:20:06.523Z,31.21
2022-08-11T12:21:07.503Z,31.20
2022-08-11T12:22:06.479Z,29.81
2022-08-11T12:23:06.463Z,31.18
2022-08-11T12:24:06.455Z,29.90
2022-08-11T12:25:06.445Z,29.41
2022-08-11T12:27:15.823Z,29.69
2022-08-11T12:28:07.403Z,29.21
2022-08-11T12:29:06.394Z,29.22
2022-08-11T12:30:06.394Z,32.34
2022-08-11T12:31:06.355Z,29.90
2022-08-11T12:32:06.355Z,29.71
2022-08-11T12:33:06.343Z,29.93
2022-08-11T12:34:06.352Z,30.51
2022-08-11T12:35:06.327Z,30.82
2022-08-11T12:36:06.315Z,29.94
2022-08-11T12:37:06.327Z,31.60
2022-08-11T12:38:10.686Z,29.93
2022-08-11T12:39:24.218Z,30.32
2022-08-11T12:40:16.729Z,30.79
2022-08-11T12:41:15.578Z,31.65
2022-08-11T12:42:07.404Z,30.08
2022-08-11T12:43:06.213Z,31.54
2022-08-11T12:44:07.236Z,31.23
2022-08-11T12:45:06.207Z,30.15
2022-08-11T12:46:07.194Z,30.99
2022-08-11T12:47:06.176Z,27.89
2022-08-11T12:48:57.870Z,28.08
2022-08-11T12:49:07.176Z,27.98
2022-08-11T12:50:06.259Z,29.44
2022-08-11T12:51:07.109Z,28.29
2022-08-11T12:52:14.701Z,28.28
2022-08-11T12:53:07.089Z,27.61
2022-08-11T12:54:06.081Z,28.09